Time;durP1;ratioP1;P1;durP2;ratioP2;P2;SDS_P1;SDS_P2;PMS_P1;PMS_P2;Temp;Humidity;BMP_temperature;BMP_pressure;BME280_temperature;BME280_humidity;BME280_pressure;Samples;Min_cycle;Max_cycle;Signal;HPM_P1;HPM_P2
2024/02/24 00:02:01;;;;;;;1.70;1.60;;;7.50;99.90;;;;;;4889805;29;20242;-82
2024/02/24 00:04:28;;;;;;;1.70;1.60;;;7.50;99.90;;;;;;4892827;29;20028;-81
2024/02/24 00:06:55;;;;;;;2.03;1.88;;;7.50;99.90;;;;;;4902909;29;20398;-82
2024/02/24 00:09:20;;;;;;;3.55;2.05;;;7.40;99.90;;;;;;4909967;29;20028;-81
2024/02/24 00:11:46;;;;;;;1.58;1.48;;;7.50;99.90;;;;;;4906234;29;20027;-82
2024/02/24 00:14:12;;;;;;;2.00;1.90;;;7.40;99.90;;;;;;4908215;29;20075;-81
2024/02/24 00:16:37;;;;;;;2.80;2.08;;;7.40;99.90;;;;;;4890993;29;20044;-81
2024/02/24 00:19:03;;;;;;;2.58;2.35;;;7.30;99.90;;;;;;4898013;29;20394;-81
2024/02/24 00:21:29;;;;;;;2.40;2.20;;;7.30;99.90;;;;;;4908177;29;20035;-81
2024/02/24 00:23:54;;;;;;;2.10;2.00;;;7.30;99.90;;;;;;4909252;29;20028;-81
2024/02/24 00:26:20;;;;;;;1.63;1.52;;;7.30;99.90;;;;;;4902993;29;20031;-81
2024/02/24 00:28:46;;;;;;;2.25;2.05;;;7.20;99.90;;;;;;4907243;29;20101;-81
2024/02/24 00:31:12;;;;;;;2.00;1.90;;;7.20;99.90;;;;;;4908934;29;20550;-81
2024/02/24 00:33:38;;;;;;;2.65;2.45;;;7.20;99.90;;;;;;4905535;29;20024;-82
2024/02/24 00:36:04;;;;;;;2.20;2.10;;;7.20;99.90;;;;;;4905640;29;20322;-81
2024/02/24 00:38:30;;;;;;;2.28;2.17;;;7.20;99.90;;;;;;4899619;29;20032;-81
2024/02/24 00:40:55;;;;;;;2.72;2.25;;;7.20;99.90;;;;;;4892304;29;20099;-81
2024/02/24 00:43:21;;;;;;;2.83;2.63;;;7.20;99.90;;;;;;4905109;29;20024;-81
2024/02/24 00:45:47;;;;;;;2.00;1.90;;;7.20;99.90;;;;;;4903998;29;20029;-81
2024/02/24 00:48:13;;;;;;;2.17;2.08;;;7.20;99.90;;;;;;4910790;29;20582;-81
2024/02/24 00:50:38;;;;;;;2.20;2.00;;;7.20;99.90;;;;;;4898267;29;20119;-81
2024/02/24 00:53:05;;;;;;;1.80;1.70;;;7.20;99.90;;;;;;4906863;29;20103;-81
2024/02/24 00:55:31;;;;;;;1.95;1.80;;;7.20;99.90;;;;;;4907635;29;20028;-81
2024/02/24 00:57:56;;;;;;;3.22;1.95;;;7.20;99.90;;;;;;4896545;29;20029;-81
2024/02/24 01:00:22;;;;;;;2.05;1.95;;;7.20;99.90;;;;;;4908044;29;20040;-83
2024/02/24 01:02:48;;;;;;;1.77;1.60;;;7.10;99.90;;;;;;4899366;29;20028;-83
2024/02/24 01:05:13;;;;;;;1.60;1.45;;;7.10;99.90;;;;;;4896110;29;20179;-83
2024/02/24 01:07:39;;;;;;;1.30;1.30;;;7.10;99.90;;;;;;4888669;29;20029;-81
2024/02/24 01:10:09;;;;;;;1.02;1.02;;;7.20;99.90;;;;;;4897441;29;20024;-81
2024/02/24 01:12:34;;;;;;;1.50;1.40;;;7.20;99.90;;;;;;4897959;29;20044;-81
2024/02/24 01:15:00;;;;;;;2.95;2.75;;;7.30;99.90;;;;;;4906212;29;20419;-81
2024/02/24 01:17:26;;;;;;;8.70;7.15;;;7.30;99.90;;;;;;4909766;29;20514;-81
2024/02/24 01:19:51;;;;;;;10.20;9.20;;;7.30;99.90;;;;;;4906654;29;20076;-81
2024/02/24 01:22:17;;;;;;;17.92;14.75;;;7.40;99.90;;;;;;4896958;29;20184;-81
2024/02/24 01:24:43;;;;;;;12.82;11.48;;;7.40;99.90;;;;;;4905237;29;20033;-81
2024/02/24 01:27:09;;;;;;;8.95;8.02;;;7.30;99.90;;;;;;4907320;29;20039;-81
2024/02/24 01:29:35;;;;;;;4.47;4.07;;;7.30;99.90;;;;;;4904175;29;20128;-81
2024/02/24 01:32:01;;;;;;;15.88;11.68;;;7.30;99.90;;;;;;4904448;29;20165;-81
2024/02/24 01:34:30;;;;;;;10.70;8.93;;;7.20;99.90;;;;;;4908018;29;20111;-81
2024/02/24 01:36:56;;;;;;;6.20;4.60;;;7.20;99.90;;;;;;4888142;29;20035;-82
2024/02/24 01:39:22;;;;;;;4.53;4.13;;;7.20;99.90;;;;;;4896613;29;20028;-81
2024/02/24 01:41:48;;;;;;;4.13;3.83;;;7.20;99.90;;;;;;4896770;29;20119;-81
2024/02/24 01:44:18;;;;;;;3.53;3.33;;;7.10;99.90;;;;;;4893355;29;20028;-82
2024/02/24 01:46:48;;;;;;;2.88;2.70;;;7.10;99.90;;;;;;4906009;29;20394;-81
2024/02/24 01:49:15;;;;;;;2.90;2.70;;;7.10;99.90;;;;;;4895510;29;20056;-82
2024/02/24 01:51:42;;;;;;;3.05;2.85;;;7.00;99.90;;;;;;4887856;29;20038;-82
2024/02/24 01:54:09;;;;;;;2.60;2.50;;;7.00;99.90;;;;;;4890897;29;20331;-81
2024/02/24 01:56:37;;;;;;;2.35;2.25;;;7.00;99.90;;;;;;4898508;29;20035;-81
2024/02/24 01:59:03;;;;;;;2.65;2.45;;;7.00;99.90;;;;;;4906769;29;20028;-82
2024/02/24 02:01:30;;;;;;;2.25;2.15;;;7.10;99.90;;;;;;4888796;29;20035;-81
2024/02/24 02:03:57;;;;;;;2.65;2.45;;;7.10;99.90;;;;;;4896252;29;20115;-82
2024/02/24 02:06:24;;;;;;;2.55;2.40;;;7.10;99.90;;;;;;4897601;29;20469;-81
2024/02/24 02:08:50;;;;;;;2.40;2.20;;;7.10;99.90;;;;;;4907823;29;20072;-81
2024/02/24 02:11:16;;;;;;;2.50;2.40;;;7.10;99.90;;;;;;4895157;29;20025;-81
2024/02/24 02:13:41;;;;;;;3.13;2.92;;;7.10;99.90;;;;;;4905998;29;20497;-81
2024/02/24 02:16:07;;;;;;;3.33;3.03;;;7.10;99.90;;;;;;4894915;29;20399;-81
2024/02/24 02:18:33;;;;;;;2.40;2.30;;;7.20;99.90;;;;;;4890973;29;20115;-81
2024/02/24 02:20:59;;;;;;;4.78;4.38;;;7.20;99.90;;;;;;4897687;29;20024;-81
2024/02/24 02:23:25;;;;;;;4.78;4.38;;;7.10;99.90;;;;;;4904402;29;20032;-81
2024/02/24 02:25:50;;;;;;;6.95;6.43;;;7.00;99.90;;;;;;4906450;29;20407;-81
2024/02/24 02:28:16;;;;;;;8.25;7.07;;;6.80;99.90;;;;;;4896394;29;20391;-81
2024/02/24 02:30:42;;;;;;;4.60;4.28;;;6.60;99.90;;;;;;4896690;29;20114;-81
2024/02/24 02:33:10;;;;;;;5.18;4.00;;;6.60;99.90;;;;;;4892527;29;20033;-81
2024/02/24 02:35:36;;;;;;;2.92;2.72;;;6.70;99.90;;;;;;4895421;29;20064;-81
2024/02/24 02:38:03;;;;;;;2.30;2.10;;;6.70;99.90;;;;;;4889630;29;20059;-82
2024/02/24 02:40:29;;;;;;;2.35;2.25;;;6.80;99.90;;;;;;4893847;29;20107;-81
2024/02/24 02:42:54;;;;;;;2.22;2.13;;;6.80;99.90;;;;;;4898855;29;20131;-81
2024/02/24 02:45:20;;;;;;;3.67;3.42;;;6.90;99.90;;;;;;4897929;29;20091;-81
2024/02/24 02:47:46;;;;;;;4.55;4.20;;;6.90;99.90;;;;;;4898797;29;20317;-81
2024/02/24 02:50:11;;;;;;;4.35;4.10;;;6.90;99.90;;;;;;4911098;29;20028;-81
2024/02/24 02:52:37;;;;;;;5.07;4.72;;;7.00;99.90;;;;;;4911102;29;20033;-81
2024/02/24 02:55:03;;;;;;;4.03;3.72;;;7.10;99.90;;;;;;4899718;29;20115;-81
2024/02/24 02:57:29;;;;;;;3.45;3.25;;;7.00;99.90;;;;;;4898563;29;20376;-81
2024/02/24 02:59:54;;;;;;;3.45;3.20;;;7.10;99.90;;;;;;4892388;29;20116;-81
2024/02/24 03:02:20;;;;;;;3.55;3.35;;;7.00;99.90;;;;;;4894165;29;20037;-81
2024/02/24 03:04:46;;;;;;;4.38;3.38;;;6.90;99.90;;;;;;4908731;29;20032;-81
2024/02/24 03:07:12;;;;;;;3.80;3.50;;;7.00;99.90;;;;;;4910716;29;20035;-81
2024/02/24 03:09:37;;;;;;;3.13;2.88;;;6.80;99.90;;;;;;4909589;29;20111;-81
2024/02/24 03:12:03;;;;;;;2.85;2.65;;;6.80;99.90;;;;;;4907342;29;20487;-81
2024/02/24 03:14:29;;;;;;;3.50;3.30;;;6.70;99.90;;;;;;4907555;29;20406;-81
2024/02/24 03:16:55;;;;;;;3.90;3.60;;;6.80;99.90;;;;;;4910342;29;20048;-81
2024/02/24 03:19:21;;;;;;;5.80;4.75;;;6.70;99.90;;;;;;4913398;29;20024;-81
2024/02/24 03:21:47;;;;;;;5.63;5.13;;;6.80;99.90;;;;;;4900744;29;20119;-81
2024/02/24 03:24:12;;;;;;;4.95;4.40;;;6.80;99.90;;;;;;4907435;29;20021;-81
2024/02/24 03:26:41;;;;;;;4.28;3.97;;;6.80;99.90;;;;;;4910750;29;20475;-81
2024/02/24 03:29:07;;;;;;;5.15;4.30;;;6.70;99.90;;;;;;4902053;29;20024;-81
2024/02/24 03:31:33;;;;;;;4.65;4.30;;;6.80;99.90;;;;;;4905685;29;20380;-81
2024/02/24 03:33:58;;;;;;;5.57;5.13;;;6.70;99.90;;;;;;4898641;29;20367;-81
2024/02/24 03:36:24;;;;;;;5.35;4.95;;;6.70;99.90;;;;;;4912627;29;20471;-81
2024/02/24 03:38:50;;;;;;;6.07;5.50;;;6.70;99.90;;;;;;4907735;29;20033;-81
2024/02/24 03:41:16;;;;;;;6.00;5.47;;;6.60;99.90;;;;;;4913400;29;20055;-81
2024/02/24 03:43:41;;;;;;;6.53;6.00;;;6.70;99.90;;;;;;4909104;29;20119;-81
2024/02/24 03:46:07;;;;;;;6.13;5.63;;;6.70;99.90;;;;;;4910435;29;20032;-81
2024/02/24 03:48:33;;;;;;;5.68;5.28;;;6.70;99.90;;;;;;4907313;29;20497;-81
2024/02/24 03:51:00;;;;;;;5.90;4.85;;;6.60;99.90;;;;;;4906544;29;20029;-81
2024/02/24 03:53:26;;;;;;;6.10;5.70;;;6.60;99.90;;;;;;4900027;29;20391;-81
2024/02/24 03:55:52;;;;;;;6.15;5.65;;;6.60;99.90;;;;;;4907279;29;20035;-82
2024/02/24 03:58:18;;;;;;;5.75;5.25;;;6.60;99.90;;;;;;4910131;29;20045;-81
2024/02/24 04:00:44;;;;;;;5.88;5.28;;;6.60;99.90;;;;;;4899240;29;20033;-81
2024/02/24 04:03:11;;;;;;;6.63;6.05;;;6.60;99.90;;;;;;4897452;29;20395;-81
2024/02/24 04:05:37;;;;;;;6.35;5.82;;;6.70;99.90;;;;;;4908294;29;20147;-81
2024/02/24 04:08:06;;;;;;;6.72;6.13;;;6.70;99.90;;;;;;4909861;29;20024;-81
2024/02/24 04:10:32;;;;;;;6.97;6.28;;;6.70;99.90;;;;;;4897279;29;20036;-81
2024/02/24 04:12:57;;;;;;;6.55;6.00;;;6.60;99.90;;;;;;4889534;29;20028;-81
2024/02/24 04:15:23;;;;;;;6.95;6.30;;;6.60;99.90;;;;;;4892816;29;20495;-81
2024/02/24 04:17:49;;;;;;;6.90;6.25;;;6.70;99.90;;;;;;4899776;29;20078;-81
2024/02/24 04:20:16;;;;;;;7.15;6.45;;;6.70;99.90;;;;;;4888748;29;20115;-81
2024/02/24 04:22:42;;;;;;;7.60;6.20;;;6.70;99.90;;;;;;4906934;29;20111;-81
2024/02/24 04:25:08;;;;;;;8.20;7.25;;;6.70;99.90;;;;;;4909714;29;20111;-81
2024/02/24 04:27:34;;;;;;;8.20;7.38;;;6.60;99.90;;;;;;4898269;29;20271;-81
2024/02/24 04:30:00;;;;;;;7.70;7.03;;;6.60;99.90;;;;;;4907897;29;20025;-81
2024/02/24 04:32:27;;;;;;;8.88;7.72;;;6.60;99.90;;;;;;4900029;29;20025;-81
2024/02/24 04:34:53;;;;;;;7.50;6.90;;;6.50;99.90;;;;;;4906537;29;20025;-81
2024/02/24 04:37:19;;;;;;;8.02;7.28;;;6.50;99.90;;;;;;4909305;29;20076;-81
2024/02/24 04:39:44;;;;;;;7.50;6.88;;;6.50;99.90;;;;;;4889581;29;20099;-80
2024/02/24 04:42:10;;;;;;;6.95;6.45;;;6.50;99.90;;;;;;4909081;29;20024;-81
2024/02/24 04:44:36;;;;;;;7.65;6.97;;;6.50;99.90;;;;;;4903221;29;20505;-81
2024/02/24 04:47:01;;;;;;;7.82;7.13;;;6.50;99.90;;;;;;4901312;29;20035;-81
2024/02/24 04:49:27;;;;;;;9.77;7.65;;;6.50;99.90;;;;;;4892293;29;20518;-81
2024/02/24 04:51:53;;;;;;;10.68;7.60;;;6.40;99.90;;;;;;4905593;29;20534;-81
2024/02/24 04:54:18;;;;;;;8.55;7.75;;;6.40;99.90;;;;;;4898323;29;20024;-81
2024/02/24 04:56:47;;;;;;;8.75;7.25;;;6.40;99.90;;;;;;4906685;29;20032;-81
2024/02/24 04:59:14;;;;;;;8.38;7.55;;;6.30;99.90;;;;;;4906663;29;20028;-81
2024/02/24 05:01:39;;;;;;;9.57;8.00;;;6.30;99.90;;;;;;4907423;29;20095;-81
2024/02/24 05:04:05;;;;;;;10.23;7.43;;;6.30;99.90;;;;;;4899119;29;20491;-81
2024/02/24 05:06:31;;;;;;;7.75;7.05;;;6.40;99.90;;;;;;4905702;29;20029;-81
2024/02/24 05:08:56;;;;;;;9.68;8.68;;;6.50;99.90;;;;;;4906869;29;20114;-81
2024/02/24 05:11:22;;;;;;;8.45;7.65;;;6.60;99.90;;;;;;4896094;29;20036;-81
2024/02/24 05:13:48;;;;;;;7.45;6.55;;;6.60;99.90;;;;;;4895241;29;20061;-81
2024/02/24 05:16:14;;;;;;;9.38;8.45;;;6.50;99.90;;;;;;4908585;29;20151;-81
2024/02/24 05:18:40;;;;;;;8.73;7.88;;;6.50;99.90;;;;;;4912501;29;20040;-81
2024/02/24 05:21:06;;;;;;;8.88;7.97;;;6.50;99.90;;;;;;4896119;29;20028;-81
2024/02/24 05:23:32;;;;;;;8.57;7.75;;;6.50;99.90;;;;;;4904901;29;20388;-81
2024/02/24 05:26:01;;;;;;;8.07;7.28;;;6.60;99.90;;;;;;4888073;29;20438;-81
2024/02/24 05:28:27;;;;;;;8.10;7.30;;;6.60;99.90;;;;;;4897930;29;20080;-81
2024/02/24 05:30:53;;;;;;;9.70;7.93;;;6.60;99.90;;;;;;4898440;29;20439;-81
2024/02/24 05:33:18;;;;;;;8.15;7.35;;;6.70;99.90;;;;;;4901699;29;20016;-81
2024/02/24 05:35:45;;;;;;;8.75;7.95;;;6.70;99.90;;;;;;4891732;29;20052;-81
2024/02/24 05:38:13;;;;;;;8.85;7.90;;;6.70;99.90;;;;;;4908554;29;20032;-81
2024/02/24 05:40:39;;;;;;;7.65;7.00;;;6.80;99.90;;;;;;4895989;29;20100;-81
2024/02/24 05:43:05;;;;;;;10.65;8.70;;;6.80;99.90;;;;;;4912207;29;20033;-81
2024/02/24 05:45:30;;;;;;;13.60;10.77;;;6.90;99.90;;;;;;4903780;29;20029;-81
2024/02/24 05:47:56;;;;;;;11.93;9.35;;;6.90;99.90;;;;;;4905676;29;20467;-83
2024/02/24 05:50:22;;;;;;;12.82;8.95;;;6.90;99.90;;;;;;4904424;29;20051;-81
2024/02/24 05:52:47;;;;;;;9.40;8.18;;;6.90;99.90;;;;;;4895784;29;20032;-81
2024/02/24 05:55:15;;;;;;;8.50;7.63;;;6.90;99.90;;;;;;4893313;29;20501;-81
2024/02/24 05:57:40;;;;;;;8.95;7.05;;;6.90;99.90;;;;;;4910579;29;20021;-81
2024/02/24 06:00:11;;;;;;;9.10;8.20;;;6.90;99.90;;;;;;4895497;29;20120;-81
2024/02/24 06:02:37;;;;;;;7.95;7.20;;;6.90;99.90;;;;;;4907890;29;20060;-81
2024/02/24 06:05:03;;;;;;;7.68;6.93;;;6.90;99.90;;;;;;4904421;29;20039;-81
2024/02/24 06:07:29;;;;;;;8.27;7.47;;;6.90;99.90;;;;;;4898282;29;20406;-81
2024/02/24 06:09:54;;;;;;;9.75;7.43;;;7.00;99.90;;;;;;4907958;29;20020;-81
2024/02/24 06:12:20;;;;;;;8.05;7.30;;;7.00;99.90;;;;;;4903059;29;20512;-81
2024/02/24 06:14:46;;;;;;;8.85;7.95;;;7.00;99.90;;;;;;4893503;29;20047;-80
2024/02/24 06:17:12;;;;;;;8.65;7.70;;;7.00;99.90;;;;;;4907676;29;20044;-81
2024/02/24 06:19:38;;;;;;;13.32;7.60;;;7.00;99.90;;;;;;4908244;29;20046;-81
2024/02/24 06:22:03;;;;;;;8.05;7.30;;;7.00;99.90;;;;;;4905559;29;20021;-81
2024/02/24 06:24:29;;;;;;;8.50;7.55;;;7.10;99.90;;;;;;4910371;29;20032;-81
2024/02/24 06:26:55;;;;;;;16.20;7.90;;;7.10;99.90;;;;;;4904222;29;20024;-81
2024/02/24 06:29:23;;;;;;;9.00;6.97;;;7.20;99.90;;;;;;4904808;29;20498;-81
2024/02/24 06:31:49;;;;;;;7.90;7.20;;;7.20;99.90;;;;;;4907419;29;20060;-81
2024/02/24 06:34:14;;;;;;;7.75;6.85;;;7.20;99.90;;;;;;4904000;29;20062;-81
2024/02/24 06:36:40;;;;;;;8.40;7.20;;;7.20;99.90;;;;;;4907758;29;20043;-81
2024/02/24 06:39:07;;;;;;;8.70;7.78;;;7.30;99.90;;;;;;4903909;29;20032;-81
2024/02/24 06:41:32;;;;;;;10.73;7.68;;;7.30;99.90;;;;;;4907699;29;20028;-81
2024/02/24 06:43:58;;;;;;;9.10;7.40;;;7.30;99.90;;;;;;4910516;29;20111;-81
2024/02/24 06:46:24;;;;;;;10.93;7.57;;;7.30;99.90;;;;;;4908805;29;20025;-81
2024/02/24 06:48:50;;;;;;;8.75;7.85;;;7.30;99.90;;;;;;4891265;29;20468;-76
2024/02/24 06:51:15;;;;;;;8.48;7.68;;;7.30;99.90;;;;;;4907496;29;20021;-76
2024/02/24 06:53:42;;;;;;;11.38;7.65;;;7.40;99.90;;;;;;4886868;29;20376;-76
2024/02/24 06:56:08;;;;;;;8.60;7.60;;;7.40;99.90;;;;;;4906293;29;21343;-76
2024/02/24 06:58:35;;;;;;;9.23;7.70;;;7.40;99.90;;;;;;4904558;29;20092;-76
2024/02/24 07:01:02;;;;;;;8.23;7.43;;;7.40;99.90;;;;;;4886817;29;20115;-76
2024/02/24 07:03:29;;;;;;;8.45;7.25;;;7.50;99.90;;;;;;4903630;29;20032;-76
2024/02/24 07:05:55;;;;;;;9.27;8.35;;;7.50;99.90;;;;;;4907731;29;20611;-76
2024/02/24 07:08:21;;;;;;;15.15;8.32;;;7.50;99.90;;;;;;4895609;29;20044;-76
2024/02/24 07:10:50;;;;;;;9.20;7.75;;;7.60;99.90;;;;;;4900871;29;20028;-76
2024/02/24 07:13:16;;;;;;;9.38;7.68;;;7.60;99.90;;;;;;4905915;29;20035;-78
2024/02/24 07:15:41;;;;;;;9.80;8.80;;;7.70;99.90;;;;;;4898550;29;20386;-78
2024/02/24 07:18:07;;;;;;;10.18;9.00;;;7.70;99.90;;;;;;4895514;29;20060;-79
2024/02/24 07:20:33;;;;;;;9.77;8.63;;;7.70;99.90;;;;;;4899023;29;20036;-76
2024/02/24 07:22:58;;;;;;;10.43;8.25;;;7.80;99.90;;;;;;4899321;29;20032;-76
2024/02/24 07:25:24;;;;;;;10.65;8.93;;;7.80;99.90;;;;;;4915077;29;20035;-76
2024/02/24 07:27:50;;;;;;;11.35;8.85;;;7.90;99.90;;;;;;4894514;29;20059;-76
2024/02/24 07:30:15;;;;;;;10.60;8.80;;;8.00;99.90;;;;;;4898333;29;20119;-76
2024/02/24 07:32:41;;;;;;;13.07;7.85;;;8.00;99.90;;;;;;4907078;29;20033;-76
2024/02/24 07:35:07;;;;;;;10.25;8.77;;;8.10;99.90;;;;;;4907266;29;20087;-76
2024/02/24 07:37:33;;;;;;;8.82;7.93;;;8.10;99.90;;;;;;4913670;29;20457;-76
2024/02/24 07:39:58;;;;;;;12.60;9.15;;;8.20;99.90;;;;;;4899090;29;20328;-76
2024/02/24 07:42:25;;;;;;;13.15;8.80;;;8.20;99.90;;;;;;4903733;29;20032;-76
2024/02/24 07:44:51;;;;;;;17.70;12.38;;;8.20;99.90;;;;;;4916533;29;20055;-76
2024/02/24 07:47:17;;;;;;;16.38;13.13;;;8.30;99.90;;;;;;4901005;29;20063;-76
2024/02/24 07:49:43;;;;;;;16.48;12.63;;;8.20;99.90;;;;;;4899574;29;20032;-80
2024/02/24 07:52:09;;;;;;;21.38;15.32;;;8.20;99.90;;;;;;4901754;29;20032;-80
2024/02/24 07:54:38;;;;;;;19.98;16.40;;;8.20;99.90;;;;;;4911582;29;20036;-80
2024/02/24 07:57:04;;;;;;;19.90;16.63;;;8.10;99.90;;;;;;4910152;29;20025;-80
2024/02/24 07:59:30;;;;;;;19.70;16.67;;;8.10;99.90;;;;;;4910303;29;20035;-80
2024/02/24 08:01:56;;;;;;;21.55;17.17;;;8.10;99.90;;;;;;4889750;29;20063;-80
2024/02/24 08:04:21;;;;;;;21.92;16.67;;;8.10;99.90;;;;;;4898185;29;20044;-80
2024/02/24 08:06:47;;;;;;;19.90;16.30;;;8.10;99.90;;;;;;4898297;29;20545;-80
2024/02/24 08:09:13;;;;;;;26.88;17.58;;;8.10;99.90;;;;;;4898362;29;20179;-80
2024/02/24 08:11:41;;;;;;;27.67;20.38;;;8.10;99.90;;;;;;4898898;29;20024;-80
2024/02/24 08:14:07;;;;;;;24.70;19.13;;;8.10;99.90;;;;;;4911404;29;20029;-80
2024/02/24 08:16:34;;;;;;;22.25;17.33;;;8.00;99.90;;;;;;4895852;29;20388;-80
2024/02/24 08:19:01;;;;;;;22.13;17.83;;;8.00;99.90;;;;;;4899976;29;20332;-80
2024/02/24 08:21:28;;;;;;;26.55;19.33;;;8.00;99.90;;;;;;4906517;29;20024;-80
2024/02/24 08:23:54;;;;;;;23.92;18.48;;;8.10;99.90;;;;;;4892548;29;20399;-80
2024/02/24 08:26:20;;;;;;;23.27;17.75;;;8.20;99.90;;;;;;4899832;29;20039;-80
2024/02/24 08:28:45;;;;;;;20.90;16.50;;;8.30;99.90;;;;;;4904941;29;20206;-80
2024/02/24 08:31:11;;;;;;;25.33;18.17;;;8.40;99.90;;;;;;4897779;29;20029;-80
2024/02/24 08:33:40;;;;;;;26.75;17.65;;;8.40;99.90;;;;;;4909728;29;20025;-80
2024/02/24 08:36:06;;;;;;;24.80;17.08;;;8.50;99.90;;;;;;4906979;29;20028;-80
2024/02/24 08:38:32;;;;;;;20.92;16.65;;;8.50;99.90;;;;;;4906270;29;21378;-80
2024/02/24 08:40:57;;;;;;;20.40;15.98;;;8.60;99.90;;;;;;4897707;29;20193;-80
2024/02/24 08:43:23;;;;;;;20.77;16.73;;;8.70;99.90;;;;;;4892266;29;20071;-80
2024/02/24 08:45:49;;;;;;;19.55;16.42;;;8.80;99.90;;;;;;4905291;29;20032;-80
2024/02/24 08:48:14;;;;;;;23.75;18.00;;;8.90;99.90;;;;;;4896447;29;20033;-80
2024/02/24 08:50:40;;;;;;;26.42;17.15;;;8.90;99.90;;;;;;4908632;29;20059;-80
2024/02/24 08:53:06;;;;;;;23.00;17.15;;;9.00;99.90;;;;;;4909267;29;20025;-80
2024/02/24 08:55:32;;;;;;;22.58;17.25;;;9.00;99.90;;;;;;4905359;29;20029;-80
2024/02/24 08:57:57;;;;;;;25.15;16.50;;;9.00;99.90;;;;;;4909246;29;20467;-80
2024/02/24 09:00:23;;;;;;;24.60;17.85;;;9.10;99.90;;;;;;4908421;29;20055;-80
2024/02/24 09:02:49;;;;;;;22.45;16.63;;;9.10;99.90;;;;;;4904636;29;20474;-80
2024/02/24 09:05:15;;;;;;;21.05;17.73;;;9.20;99.90;;;;;;4905243;29;20044;-80
2024/02/24 09:07:41;;;;;;;19.30;16.55;;;9.30;99.90;;;;;;4897681;29;20056;-80
2024/02/24 09:10:07;;;;;;;21.48;16.30;;;9.30;99.90;;;;;;4898196;29;20513;-80
2024/02/24 09:12:33;;;;;;;22.67;16.80;;;9.40;99.90;;;;;;4896811;29;20035;-80
2024/02/24 09:14:59;;;;;;;24.40;17.05;;;9.40;99.90;;;;;;4905826;29;20104;-80
2024/02/24 09:17:24;;;;;;;20.40;16.98;;;9.50;99.90;;;;;;4896223;29;20056;-80
2024/02/24 09:19:50;;;;;;;21.65;16.80;;;9.60;99.90;;;;;;4908110;29;20099;-80
2024/02/24 09:22:17;;;;;;;23.75;16.73;;;9.70;99.90;;;;;;4905200;29;20460;-79
2024/02/24 09:24:42;;;;;;;24.88;16.33;;;9.70;99.90;;;;;;4908388;29;20023;-79
2024/02/24 09:27:08;;;;;;;21.90;16.98;;;9.80;99.90;;;;;;4895914;29;20044;-80
2024/02/24 09:29:34;;;;;;;29.73;16.63;;;9.90;99.90;;;;;;4898627;29;20023;-79
2024/02/24 09:31:59;;;;;;;20.83;16.35;;;9.90;99.90;;;;;;4905277;29;20067;-80
2024/02/24 09:34:25;;;;;;;26.05;15.45;;;9.90;99.90;;;;;;4908446;29;20077;-80
2024/02/24 09:36:51;;;;;;;26.05;15.68;;;10.00;99.90;;;;;;4907016;29;20028;-79
2024/02/24 09:39:16;;;;;;;22.73;15.55;;;10.00;99.90;;;;;;4907466;29;20032;-80
2024/02/24 09:41:42;;;;;;;31.50;13.98;;;10.10;99.90;;;;;;4906706;29;20025;-80
2024/02/24 09:44:09;;;;;;;23.35;14.65;;;10.10;99.90;;;;;;4889461;29;20040;-79
2024/02/24 09:46:35;;;;;;;27.52;16.30;;;10.20;99.90;;;;;;4898035;29;20020;-79
2024/02/24 09:49:01;;;;;;;18.48;15.02;;;10.20;99.90;;;;;;4898205;29;20039;-79
2024/02/24 09:51:28;;;;;;;24.35;15.73;;;10.30;99.90;;;;;;4898503;29;20115;-79
2024/02/24 09:53:53;;;;;;;19.05;14.73;;;10.30;99.90;;;;;;4908125;29;20032;-79
2024/02/24 09:56:22;;;;;;;20.95;15.77;;;10.30;99.90;;;;;;4904442;29;20475;-79
2024/02/24 09:58:50;;;;;;;21.55;14.57;;;10.30;99.90;;;;;;4904747;29;20033;-79
2024/02/24 10:01:17;;;;;;;18.45;14.32;;;10.40;99.90;;;;;;4896747;29;20420;-79
2024/02/24 10:03:43;;;;;;;20.73;15.73;;;10.40;99.90;;;;;;4906480;29;20035;-79
2024/02/24 10:06:12;;;;;;;24.17;15.40;;;10.40;99.90;;;;;;4905790;29;20029;-79
2024/02/24 10:08:38;;;;;;;21.92;14.50;;;10.50;99.90;;;;;;4904150;29;20079;-79
2024/02/24 10:11:04;;;;;;;19.83;13.82;;;10.60;99.90;;;;;;4905080;29;20036;-79
2024/02/24 10:13:31;;;;;;;21.23;14.55;;;10.70;99.90;;;;;;4911014;29;20511;-79
2024/02/24 10:15:57;;;;;;;18.50;12.65;;;10.70;99.90;;;;;;4895243;29;20064;-79
2024/02/24 10:18:25;;;;;;;22.95;14.40;;;10.70;99.90;;;;;;4895124;29;20151;-79
2024/02/24 10:20:52;;;;;;;20.20;12.75;;;10.80;99.90;;;;;;4906949;29;20493;-79
2024/02/24 10:23:18;;;;;;;19.42;13.15;;;10.80;99.90;;;;;;4903891;29;20032;-79
2024/02/24 10:25:45;;;;;;;19.08;13.00;;;10.80;99.90;;;;;;4905453;29;20171;-79
2024/02/24 10:28:11;;;;;;;19.98;12.40;;;10.80;99.90;;;;;;4907724;29;20486;-79
2024/02/24 10:30:37;;;;;;;25.27;13.25;;;10.90;99.90;;;;;;4905548;29;20111;-79
2024/02/24 10:33:04;;;;;;;19.42;14.35;;;10.80;99.90;;;;;;4906234;29;20028;-79
2024/02/24 10:35:30;;;;;;;15.77;12.75;;;10.90;99.90;;;;;;4894961;29;20060;-79
2024/02/24 10:37:56;;;;;;;21.40;11.80;;;10.90;99.90;;;;;;4907010;29;20032;-79
2024/02/24 10:40:22;;;;;;;19.35;12.77;;;11.00;99.90;;;;;;4895014;29;20084;-79
2024/02/24 10:42:48;;;;;;;16.75;11.75;;;11.00;99.90;;;;;;4907371;29;20583;-79
2024/02/24 10:45:14;;;;;;;18.50;12.18;;;11.10;99.90;;;;;;4907329;29;20054;-79
2024/02/24 10:47:40;;;;;;;17.48;11.18;;;11.10;99.90;;;;;;4892656;29;20144;-79
2024/02/24 10:50:11;;;;;;;21.23;11.18;;;11.20;99.90;;;;;;4896037;29;20033;-79
2024/02/24 10:52:37;;;;;;;15.00;10.27;;;11.30;99.90;;;;;;4905433;29;20371;-79
2024/02/24 10:55:05;;;;;;;15.85;11.57;;;11.30;99.90;;;;;;4906010;29;20020;-79
2024/02/24 10:57:32;;;;;;;18.77;11.45;;;11.30;99.90;;;;;;4895576;29;20036;-79
2024/02/24 11:00:02;;;;;;;17.10;10.15;;;11.40;99.90;;;;;;4909754;29;20032;-79
2024/02/24 11:02:29;;;;;;;12.95;10.88;;;11.40;99.90;;;;;;4907509;29;20032;-79
2024/02/24 11:05:00;;;;;;;19.67;11.77;;;11.40;99.90;;;;;;4907446;29;20547;-79
2024/02/24 11:07:32;;;;;;;18.27;11.07;;;11.40;99.90;;;;;;4899478;29;20491;-79
2024/02/24 11:09:58;;;;;;;19.40;12.52;;;11.50;99.90;;;;;;4908858;29;20035;-79
2024/02/24 11:12:27;;;;;;;14.10;6.43;;;11.60;99.90;;;;;;4907760;29;20025;-79
2024/02/24 11:14:54;;;;;;;7.70;5.28;;;11.70;92.70;;;;;;4905666;29;20487;-79
2024/02/24 11:17:50;;;;;;;10.90;6.30;;;11.80;81.30;;;;;;4913421;29;20044;-79
2024/02/24 11:20:34;;;;;;;15.55;7.38;;;11.80;92.00;;;;;;4903001;29;20028;-79
2024/02/24 11:23:34;;;;;;;11.13;6.60;;;11.90;98.40;;;;;;4910587;29;20039;-79
2024/02/24 11:26:20;;;;;;;8.80;6.05;;;11.90;92.00;;;;;;4874383;29;20092;-79
2024/02/24 11:28:48;;;;;;;6.05;5.22;;;11.90;67.60;;;;;;4886906;29;20040;-79
2024/02/24 11:31:36;;;;;;;7.55;4.35;;;12.00;81.80;;;;;;4910695;29;20282;-79
2024/02/24 11:34:10;;;;;;;9.15;4.97;;;12.20;71.50;;;;;;4906813;29;20040;-79
2024/02/24 11:36:40;;;;;;;11.07;4.72;;;12.30;51.40;;;;;;4899536;29;20032;-79
2024/02/24 11:39:08;;;;;;;11.73;5.65;;;12.20;42.90;;;;;;4909153;29;20024;-79
2024/02/24 11:41:36;;;;;;;13.05;6.75;;;12.20;66.80;;;;;;4909357;29;20032;-79
2024/02/24 11:44:02;;;;;;;6.90;5.65;;;12.30;90.10;;;;;;4900865;29;20153;-79
2024/02/24 11:46:28;;;;;;;8.32;5.63;;;12.40;63.30;;;;;;4902850;29;20063;-79
2024/02/24 11:48:55;;;;;;;10.55;6.65;;;12.50;49.20;;;;;;4906419;29;20269;-79
2024/02/24 11:51:23;;;;;;;15.07;8.00;;;12.50;36.90;;;;;;4874556;29;20032;-79
2024/02/24 11:53:49;;;;;;;10.68;7.20;;;12.60;65.80;;;;;;4909044;29;20387;-79
2024/02/24 11:56:15;;;;;;;9.52;5.68;;;12.60;38.30;;;;;;4885682;29;20546;-79
2024/02/24 11:58:41;;;;;;;10.70;4.82;;;12.50;1.00;;;;;;4908218;29;20498;-79
2024/02/24 12:01:07;;;;;;;8.35;3.75;;;12.50;20.50;;;;;;4898389;29;20024;-79
2024/02/24 12:03:33;;;;;;;10.30;4.07;;;12.60;28.20;;;;;;4907388;29;20172;-79
2024/02/24 12:06:03;;;;;;;7.53;4.40;;;12.80;1.00;;;;;;4900077;29;20123;-79
2024/02/24 12:08:30;;;;;;;5.13;3.58;;;13.00;14.60;;;;;;4906234;29;20029;-79
2024/02/24 12:10:56;;;;;;;9.40;5.43;;;13.00;1.00;;;;;;4905373;29;20047;-79
2024/02/24 12:13:21;;;;;;;7.45;3.40;;;13.10;15.10;;;;;;4909160;29;20432;-79
2024/02/24 12:15:48;;;;;;;5.43;3.15;;;13.30;1.00;;;;;;4905688;29;20036;-79
2024/02/24 12:18:13;;;;;;;8.88;3.40;;;13.30;1.00;;;;;;4900243;29;20044;-79
2024/02/24 12:20:48;;;;;;;10.52;3.38;;;13.30;1.00;;;;;;4898729;29;20170;-79
2024/02/24 12:23:15;;;;;;;7.65;3.00;;;13.30;1.00;;;;;;4905776;29;20036;-79
2024/02/24 12:25:43;;;;;;;8.57;3.33;;;13.40;99.90;;;;;;4892079;29;20074;-79
2024/02/24 12:28:10;;;;;;;8.65;3.70;;;13.40;99.90;;;;;;4893261;29;20037;-79
2024/02/24 12:30:38;;;;;;;5.38;3.45;;;13.30;99.90;;;;;;4889223;29;20632;-79
2024/02/24 12:33:05;;;;;;;10.82;2.47;;;13.30;99.90;;;;;;4908329;29;20103;-79
2024/02/24 12:35:31;;;;;;;8.20;2.75;;;13.20;1.00;;;;;;4905496;29;20052;-79
2024/02/24 12:37:57;;;;;;;3.08;1.88;;;13.20;99.90;;;;;;4909289;29;20087;-78
2024/02/24 12:40:31;;;;;;;5.32;1.85;;;13.20;99.90;;;;;;4903200;29;20122;-78
2024/02/24 12:42:57;;;;;;;3.30;1.92;;;13.10;99.90;;;;;;4905818;29;20028;-78
2024/02/24 12:45:23;;;;;;;5.30;3.03;;;13.10;99.90;;;;;;4905225;29;20025;-78